Time;durP1;ratioP1;P1;durP2;ratioP2;P2;SDS_P1;SDS_P2;PMS_P1;PMS_P2;Temp;Humidity;BMP_temperature;BMP_pressure;BME280_temperature;BME280_humidity;BME280_pressure;Samples;Min_cycle;Max_cycle;Signal;HPM_P1;HPM_P2
2023/09/27 00:00:17;;;;;;;3.83;3.00;;;15.30;99.90;;;;;;5077124;28;20159;-83
2023/09/27 00:02:43;;;;;;;2.88;2.58;;;15.20;99.90;;;;;;5075734;28;20024;-83
2023/09/27 00:05:10;;;;;;;4.25;2.92;;;15.20;99.90;;;;;;5077253;28;20093;-82
2023/09/27 00:07:40;;;;;;;6.57;3.10;;;15.20;99.90;;;;;;5092526;28;20029;-82
2023/09/27 00:10:11;;;;;;;4.25;3.00;;;15.00;99.90;;;;;;5092744;28;20115;-82
2023/09/27 00:12:38;;;;;;;4.70;3.00;;;15.00;99.90;;;;;;5075356;28;20028;-82
2023/09/27 00:15:05;;;;;;;7.20;3.63;;;14.90;99.90;;;;;;5075928;28;20040;-82
2023/09/27 00:17:31;;;;;;;3.53;2.95;;;14.90;99.90;;;;;;5075326;28;20039;-82
2023/09/27 00:19:57;;;;;;;4.75;3.05;;;14.90;99.90;;;;;;5075726;28;20024;-82
2023/09/27 00:22:27;;;;;;;4.88;3.17;;;14.90;99.90;;;;;;5075295;28;20029;-81
2023/09/27 00:24:52;;;;;;;4.45;3.00;;;14.90;99.90;;;;;;5077030;28;20556;-82
2023/09/27 00:27:18;;;;;;;3.85;3.10;;;14.90;99.90;;;;;;5075692;28;20070;-81
2023/09/27 00:29:45;;;;;;;4.93;2.95;;;14.80;99.90;;;;;;5076170;28;20025;-82
2023/09/27 00:32:11;;;;;;;4.63;2.97;;;14.70;99.90;;;;;;5076153;28;20437;-81
2023/09/27 00:34:37;;;;;;;4.80;3.20;;;14.70;99.90;;;;;;5091895;28;20047;-82
2023/09/27 00:37:02;;;;;;;4.53;3.17;;;14.80;99.90;;;;;;5075419;28;20116;-82
2023/09/27 00:39:28;;;;;;;3.13;2.60;;;14.80;99.90;;;;;;5075979;28;20453;-82
2023/09/27 00:41:54;;;;;;;4.78;2.88;;;14.70;99.90;;;;;;5076480;28;20025;-81
2023/09/27 00:44:20;;;;;;;5.82;3.30;;;14.70;99.90;;;;;;5076197;28;20385;-82
2023/09/27 00:46:46;;;;;;;4.50;3.40;;;14.70;99.90;;;;;;5075025;28;20025;-82
2023/09/27 00:49:14;;;;;;;4.10;3.10;;;14.70;99.90;;;;;;5074966;28;20105;-83
2023/09/27 00:51:40;;;;;;;4.65;3.35;;;14.60;99.90;;;;;;5074888;28;20028;-83
2023/09/27 00:54:07;;;;;;;4.82;2.92;;;14.60;99.90;;;;;;5074895;28;20487;-83
2023/09/27 00:56:34;;;;;;;4.10;2.90;;;14.60;99.90;;;;;;5074484;28;20489;-84
2023/09/27 00:58:59;;;;;;;4.07;3.13;;;14.60;99.90;;;;;;5076178;28;20029;-82
2023/09/27 01:01:26;;;;;;;4.43;3.15;;;14.50;99.90;;;;;;5075616;28;20031;-82
2023/09/27 01:03:53;;;;;;;5.88;3.33;;;14.50;99.90;;;;;;5075495;28;20048;-81
2023/09/27 01:06:19;;;;;;;5.40;2.97;;;14.50;99.90;;;;;;5076040;28;20035;-81
2023/09/27 01:08:45;;;;;;;6.72;3.30;;;14.40;99.90;;;;;;5075578;28;20413;-83
2023/09/27 01:11:11;;;;;;;5.30;3.10;;;14.40;99.90;;;;;;5075913;28;20028;-83
2023/09/27 01:13:37;;;;;;;4.35;3.22;;;14.30;99.90;;;;;;5074216;28;20035;-83
2023/09/27 01:16:03;;;;;;;5.10;2.90;;;14.30;99.90;;;;;;5074744;28;20039;-83
2023/09/27 01:18:29;;;;;;;4.30;3.13;;;14.20;99.90;;;;;;5091017;28;20508;-83
2023/09/27 01:20:55;;;;;;;5.35;2.95;;;14.30;99.90;;;;;;5074559;28;20056;-82
2023/09/27 01:23:21;;;;;;;5.40;3.20;;;14.30;99.90;;;;;;5075722;28;20063;-81
2023/09/27 01:25:53;;;;;;;3.92;3.08;;;14.40;99.90;;;;;;5073846;28;20447;-81
2023/09/27 01:28:21;;;;;;;4.65;3.38;;;14.40;99.90;;;;;;5074603;28;20029;-80
2023/09/27 01:30:47;;;;;;;6.30;3.42;;;14.40;99.90;;;;;;5073608;28;20031;-81
2023/09/27 01:33:13;;;;;;;4.88;3.60;;;14.30;99.90;;;;;;5090659;28;20064;-80
2023/09/27 01:35:43;;;;;;;6.63;3.40;;;14.30;99.90;;;;;;5073719;28;20032;-81
2023/09/27 01:38:11;;;;;;;4.68;3.35;;;14.20;99.90;;;;;;5074471;28;20024;-81
2023/09/27 01:40:41;;;;;;;4.65;3.08;;;14.20;99.90;;;;;;5073608;28;20024;-81
2023/09/27 01:43:07;;;;;;;4.97;2.90;;;14.10;99.90;;;;;;5091150;28;20031;-80
2023/09/27 01:45:33;;;;;;;3.97;2.83;;;14.10;99.90;;;;;;5073448;28;20055;-81
2023/09/27 01:48:00;;;;;;;4.10;3.05;;;14.10;99.90;;;;;;5074286;28;20021;-81
2023/09/27 01:50:26;;;;;;;3.60;2.90;;;14.00;99.90;;;;;;5074324;28;20499;-82
2023/09/27 01:52:52;;;;;;;4.82;2.72;;;14.00;99.90;;;;;;5074218;28;20461;-81
2023/09/27 01:55:19;;;;;;;5.50;3.00;;;14.00;99.90;;;;;;5073267;28;20036;-81
2023/09/27 01:57:47;;;;;;;4.30;2.70;;;14.00;99.90;;;;;;5073173;28;20401;-81
2023/09/27 02:00:18;;;;;;;4.30;2.97;;;13.90;99.90;;;;;;5073654;28;20024;-81
2023/09/27 02:02:47;;;;;;;3.88;3.00;;;13.80;99.90;;;;;;5073111;28;20024;-79
2023/09/27 02:05:12;;;;;;;3.70;2.92;;;13.80;99.90;;;;;;5073528;28;20033;-79
2023/09/27 02:07:39;;;;;;;4.57;3.15;;;13.80;99.90;;;;;;5072910;28;20036;-80
2023/09/27 02:10:06;;;;;;;5.47;3.17;;;13.70;99.90;;;;;;5073609;28;20032;-80
2023/09/27 02:12:32;;;;;;;6.05;3.08;;;13.70;99.90;;;;;;5073992;28;20020;-80
2023/09/27 02:14:57;;;;;;;4.65;3.10;;;13.80;99.90;;;;;;5072647;28;20036;-80
2023/09/27 02:17:23;;;;;;;4.00;3.17;;;13.80;99.90;;;;;;5073275;28;20484;-79
2023/09/27 02:19:48;;;;;;;4.28;3.22;;;13.80;99.90;;;;;;5073819;28;20024;-80
2023/09/27 02:22:14;;;;;;;4.80;3.20;;;13.80;99.90;;;;;;5074182;28;20526;-80
2023/09/27 02:24:40;;;;;;;5.93;3.58;;;13.70;99.90;;;;;;5072484;28;20035;-80
2023/09/27 02:27:06;;;;;;;4.95;3.40;;;13.70;99.90;;;;;;5073189;28;20090;-79
2023/09/27 02:29:32;;;;;;;7.75;3.47;;;13.70;99.90;;;;;;5072748;28;20028;-80
2023/09/27 02:31:58;;;;;;;4.38;3.15;;;13.70;99.90;;;;;;5074116;28;20085;-79
2023/09/27 02:34:24;;;;;;;11.55;3.95;;;13.60;99.90;;;;;;5074122;28;20083;-79
2023/09/27 02:36:50;;;;;;;4.60;3.20;;;13.60;99.90;;;;;;5073625;28;20111;-79
2023/09/27 02:39:16;;;;;;;5.07;3.38;;;13.60;99.90;;;;;;5072957;28;20471;-79
2023/09/27 02:41:41;;;;;;;5.15;3.55;;;13.50;99.90;;;;;;5072081;28;20035;-79
2023/09/27 02:44:07;;;;;;;5.15;3.20;;;13.50;99.90;;;;;;5072776;28;20123;-79
2023/09/27 02:46:32;;;;;;;5.55;3.20;;;13.60;99.90;;;;;;5072220;28;20458;-80
2023/09/27 02:48:58;;;;;;;5.70;3.40;;;13.60;99.90;;;;;;5073570;28;20025;-79
2023/09/27 02:51:24;;;;;;;4.30;3.08;;;13.50;99.90;;;;;;5074148;28;20036;-81
2023/09/27 02:53:49;;;;;;;6.57;3.20;;;13.50;99.90;;;;;;5072354;28;20024;-80
2023/09/27 02:56:15;;;;;;;4.65;3.47;;;13.50;99.90;;;;;;5072659;28;20040;-80
2023/09/27 02:58:40;;;;;;;4.43;3.28;;;13.50;99.90;;;;;;5073347;28;20466;-80
2023/09/27 03:01:06;;;;;;;5.80;3.35;;;13.50;99.90;;;;;;5073754;28;20085;-80
2023/09/27 03:03:33;;;;;;;6.72;3.88;;;13.60;99.90;;;;;;5073363;28;20033;-80
2023/09/27 03:05:59;;;;;;;6.45;3.53;;;13.50;99.90;;;;;;5072995;28;20036;-81
2023/09/27 03:08:25;;;;;;;4.70;3.58;;;13.50;99.90;;;;;;5072608;28;20029;-81
2023/09/27 03:10:51;;;;;;;6.97;3.83;;;13.60;99.90;;;;;;5072513;28;20036;-81
2023/09/27 03:13:16;;;;;;;6.07;3.28;;;13.60;99.90;;;;;;5072886;28;20031;-80
2023/09/27 03:15:44;;;;;;;5.78;3.55;;;13.60;99.90;;;;;;5072124;28;20036;-80
2023/09/27 03:18:09;;;;;;;5.47;3.60;;;13.50;99.90;;;;;;5072600;28;20481;-81
2023/09/27 03:20:36;;;;;;;5.85;3.60;;;13.40;99.90;;;;;;5072201;28;20058;-81
2023/09/27 03:23:02;;;;;;;6.38;3.28;;;13.40;99.90;;;;;;5072677;28;20025;-81
2023/09/27 03:25:28;;;;;;;6.78;3.40;;;13.40;99.90;;;;;;5072294;28;20036;-81
2023/09/27 03:27:54;;;;;;;6.47;3.47;;;13.40;99.90;;;;;;5075218;28;20025;-81
2023/09/27 03:30:20;;;;;;;5.13;3.15;;;13.40;99.90;;;;;;5077792;28;20028;-81
2023/09/27 03:32:46;;;;;;;6.00;3.42;;;13.40;99.90;;;;;;5076255;28;20052;-82
2023/09/27 03:35:12;;;;;;;5.47;3.40;;;13.40;99.90;;;;;;5093354;28;20059;-81
2023/09/27 03:37:38;;;;;;;4.28;3.38;;;13.40;99.90;;;;;;5077035;28;20441;-81
2023/09/27 03:40:13;;;;;;;5.93;3.67;;;13.40;99.90;;;;;;5077572;28;20108;-81
2023/09/27 03:42:41;;;;;;;3.80;3.20;;;13.50;99.90;;;;;;5076237;28;20060;-82
2023/09/27 03:45:07;;;;;;;5.07;3.65;;;13.50;99.90;;;;;;5076357;28;20043;-82
2023/09/27 03:47:33;;;;;;;5.05;3.63;;;13.40;99.90;;;;;;5076095;28;20119;-81
2023/09/27 03:49:59;;;;;;;4.85;3.08;;;13.30;99.90;;;;;;5076180;28;20082;-81
2023/09/27 03:52:24;;;;;;;5.70;3.30;;;13.20;99.90;;;;;;5076230;28;20063;-81
2023/09/27 03:54:50;;;;;;;4.07;2.83;;;13.20;99.90;;;;;;5075502;28;20139;-81
2023/09/27 03:57:16;;;;;;;5.90;3.20;;;13.20;99.90;;;;;;5075973;28;20037;-81
2023/09/27 03:59:41;;;;;;;5.85;3.40;;;13.30;99.90;;;;;;5075401;28;20020;-82
2023/09/27 04:02:07;;;;;;;3.80;2.88;;;13.30;99.90;;;;;;5076150;28;20020;-81
2023/09/27 04:04:33;;;;;;;6.15;2.85;;;13.30;99.90;;;;;;5075485;28;20032;-85
2023/09/27 04:06:58;;;;;;;7.47;3.65;;;13.30;99.90;;;;;;5076956;28;20033;-81
2023/09/27 04:09:24;;;;;;;4.70;3.17;;;13.30;99.90;;;;;;5076941;28;20068;-81
2023/09/27 04:11:49;;;;;;;3.80;3.30;;;13.10;99.90;;;;;;5092639;28;20385;-81
2023/09/27 04:14:15;;;;;;;3.97;2.90;;;13.00;99.90;;;;;;5075695;28;20097;-81
2023/09/27 04:16:42;;;;;;;4.95;3.08;;;13.00;99.90;;;;;;5076500;28;20025;-80
2023/09/27 04:19:08;;;;;;;4.60;3.67;;;12.90;99.90;;;;;;5075815;28;20040;-80
2023/09/27 04:21:33;;;;;;;3.88;3.08;;;12.90;99.90;;;;;;5076488;28;20024;-85
2023/09/27 04:23:59;;;;;;;6.75;2.97;;;12.90;99.90;;;;;;5076552;28;20108;-80
2023/09/27 04:26:26;;;;;;;4.47;2.85;;;12.80;99.90;;;;;;5076727;28;20534;-79
2023/09/27 04:28:53;;;;;;;5.53;3.55;;;12.90;99.90;;;;;;5074662;28;20059;-81
2023/09/27 04:31:19;;;;;;;7.80;3.55;;;12.90;99.90;;;;;;5075526;28;20035;-81
2023/09/27 04:33:47;;;;;;;5.88;3.20;;;12.90;99.90;;;;;;5075942;28;20533;-81
2023/09/27 04:36:15;;;;;;;6.85;3.67;;;12.90;99.90;;;;;;5075578;28;20066;-81
2023/09/27 04:38:45;;;;;;;8.32;3.90;;;12.90;99.90;;;;;;5074082;28;20036;-84
2023/09/27 04:41:11;;;;;;;6.05;4.07;;;13.00;99.90;;;;;;5076365;28;20024;-81
2023/09/27 04:43:37;;;;;;;8.98;4.32;;;12.80;99.90;;;;;;5074947;28;20026;-82
2023/09/27 04:46:03;;;;;;;8.50;5.00;;;12.70;99.90;;;;;;5076322;28;20104;-81
2023/09/27 04:48:29;;;;;;;8.50;5.05;;;12.70;99.90;;;;;;5075183;28;20472;-82
2023/09/27 04:50:57;;;;;;;8.75;5.03;;;12.70;99.90;;;;;;5074816;28;20211;-81
2023/09/27 04:53:23;;;;;;;10.25;5.88;;;12.70;99.90;;;;;;5076020;28;20024;-81
2023/09/27 04:55:49;;;;;;;8.65;5.03;;;12.70;99.90;;;;;;5074413;28;20044;-79
2023/09/27 04:58:15;;;;;;;9.30;4.68;;;12.70;99.90;;;;;;5074764;28;20029;-79
2023/09/27 05:00:40;;;;;;;8.50;4.85;;;12.70;99.90;;;;;;5074378;28;20035;-81
2023/09/27 05:03:07;;;;;;;11.68;4.70;;;12.60;99.90;;;;;;5091820;28;20086;-81
2023/09/27 05:05:32;;;;;;;6.90;4.30;;;12.60;99.90;;;;;;5075926;28;20521;-81
2023/09/27 05:07:58;;;;;;;6.88;3.97;;;12.50;99.90;;;;;;5074187;28;20059;-82
2023/09/27 05:10:24;;;;;;;8.60;4.45;;;12.60;99.90;;;;;;5075526;28;20036;-82
2023/09/27 05:12:49;;;;;;;7.07;3.90;;;12.50;99.90;;;;;;5073993;28;20025;-81
2023/09/27 05:15:16;;;;;;;6.82;3.97;;;12.50;99.90;;;;;;5091552;28;20178;-82
2023/09/27 05:17:42;;;;;;;5.13;3.70;;;12.50;99.90;;;;;;5075259;28;20020;-81
2023/09/27 05:20:10;;;;;;;6.05;3.80;;;12.50;99.90;;;;;;5074479;28;20025;-81
2023/09/27 05:22:37;;;;;;;4.70;3.55;;;12.40;99.90;;;;;;5074640;28;20036;-81
2023/09/27 05:25:05;;;;;;;7.03;3.90;;;12.40;99.90;;;;;;5074076;28;20028;-81
2023/09/27 05:27:31;;;;;;;6.43;3.83;;;12.40;99.90;;;;;;5075548;28;20029;-81
2023/09/27 05:29:57;;;;;;;5.68;3.60;;;12.40;99.90;;;;;;5073745;28;20084;-82
2023/09/27 05:32:23;;;;;;;5.88;3.80;;;12.40;99.90;;;;;;5075211;28;20544;-81
2023/09/27 05:34:53;;;;;;;5.85;3.58;;;12.40;99.90;;;;;;5073569;28;20116;-81
2023/09/27 05:37:18;;;;;;;5.90;3.58;;;12.40;99.90;;;;;;5075093;28;20025;-81
2023/09/27 05:39:44;;;;;;;6.50;3.40;;;12.40;99.90;;;;;;5073850;28;20461;-81
2023/09/27 05:42:09;;;;;;;5.70;3.80;;;12.40;99.90;;;;;;5074954;28;20029;-80
2023/09/27 05:44:35;;;;;;;4.72;3.30;;;12.40;99.90;;;;;;5073846;28;20496;-81
2023/09/27 05:47:01;;;;;;;5.95;3.58;;;12.40;99.90;;;;;;5073349;28;20078;-80
2023/09/27 05:49:26;;;;;;;5.35;3.35;;;12.40;99.90;;;;;;5073727;28;20024;-80
2023/09/27 05:51:52;;;;;;;5.68;3.58;;;12.50;99.90;;;;;;5073434;28;20138;-81
2023/09/27 05:54:21;;;;;;;8.82;3.45;;;12.50;99.90;;;;;;5074611;28;20024;-81
2023/09/27 05:56:51;;;;;;;6.05;3.22;;;12.50;99.90;;;;;;5073045;28;20032;-81
2023/09/27 05:59:16;;;;;;;6.13;3.63;;;12.50;99.90;;;;;;5073765;28;20101;-80
2023/09/27 06:01:42;;;;;;;6.65;3.78;;;12.60;99.90;;;;;;5073224;28;20524;-81
2023/09/27 06:04:07;;;;;;;7.90;3.47;;;12.60;99.90;;;;;;5074693;28;20500;-81
2023/09/27 06:06:34;;;;;;;6.47;3.13;;;12.70;99.90;;;;;;5073397;28;20028;-80
2023/09/27 06:09:00;;;;;;;7.15;3.38;;;12.60;99.90;;;;;;5074028;28;20028;-80
2023/09/27 06:11:25;;;;;;;6.20;3.38;;;12.60;99.90;;;;;;5071536;28;20036;-82
2023/09/27 06:13:51;;;;;;;6.15;3.75;;;12.70;99.90;;;;;;5060932;28;20092;-84
2023/09/27 06:16:17;;;;;;;5.10;3.38;;;12.70;99.90;;;;;;5070539;28;20036;-83
2023/09/27 06:18:43;;;;;;;6.43;3.67;;;12.70;99.90;;;;;;5063034;28;20024;-81
2023/09/27 06:21:09;;;;;;;4.53;3.50;;;12.70;99.90;;;;;;5066887;28;20025;-80
2023/09/27 06:23:37;;;;;;;6.70;4.03;;;12.70;99.90;;;;;;5071706;28;20086;-80
2023/09/27 06:26:03;;;;;;;5.40;3.60;;;12.70;99.90;;;;;;5071219;28;20063;-80
2023/09/27 06:28:29;;;;;;;7.00;3.63;;;12.80;99.90;;;;;;5069837;28;20075;-80
2023/09/27 06:30:54;;;;;;;6.50;3.65;;;12.90;99.90;;;;;;5071059;28;20036;-83
2023/09/27 06:33:20;;;;;;;6.43;3.67;;;12.90;99.90;;;;;;5066817;28;20056;-81
2023/09/27 06:35:45;;;;;;;12.80;7.70;;;12.90;99.90;;;;;;5060128;28;20539;-80
2023/09/27 06:38:13;;;;;;;10.32;5.20;;;13.00;99.90;;;;;;5068656;28;20043;-82
2023/09/27 06:40:39;;;;;;;6.10;4.03;;;13.10;99.90;;;;;;5070933;28;20048;-81
2023/09/27 06:43:07;;;;;;;7.22;4.10;;;13.10;99.90;;;;;;5055676;28;20458;-83
2023/09/27 06:45:32;;;;;;;7.00;3.72;;;13.10;99.90;;;;;;5068066;28;20082;-82
2023/09/27 06:47:58;;;;;;;7.30;3.85;;;13.20;99.90;;;;;;5059740;28;20467;-83
2023/09/27 06:50:24;;;;;;;7.28;3.70;;;13.20;99.90;;;;;;5064824;28;20097;-81
2023/09/27 06:52:49;;;;;;;6.15;3.58;;;13.20;99.90;;;;;;5063271;28;20016;-82
2023/09/27 06:55:19;;;;;;;7.40;3.95;;;13.20;99.90;;;;;;5071298;28;20764;-83
2023/09/27 06:57:46;;;;;;;6.60;4.10;;;13.20;99.90;;;;;;5062223;28;20041;-82
2023/09/27 07:00:13;;;;;;;6.53;4.13;;;13.10;99.90;;;;;;5070207;28;20465;-82
2023/09/27 07:02:42;;;;;;;8.13;4.32;;;13.20;99.90;;;;;;5056382;28;20417;-84
2023/09/27 07:05:09;;;;;;;8.00;4.53;;;13.20;99.90;;;;;;5070480;28;20098;-87
2023/09/27 07:07:35;;;;;;;5.95;4.25;;;13.20;99.90;;;;;;5080959;28;20111;-84
2023/09/27 07:10:00;;;;;;;5.75;4.45;;;13.30;99.90;;;;;;5071004;28;20056;-86
2023/09/27 07:12:26;;;;;;;7.88;4.63;;;13.40;99.90;;;;;;5068727;28;20032;-82
2023/09/27 07:14:51;;;;;;;7.03;4.68;;;13.40;99.90;;;;;;5061455;28;20082;-83
2023/09/27 07:17:17;;;;;;;5.97;4.38;;;13.40;99.90;;;;;;5070002;28;20028;-82
2023/09/27 07:19:43;;;;;;;9.13;5.05;;;13.50;99.90;;;;;;5071534;28;20466;-83
2023/09/27 07:22:10;;;;;;;6.13;4.50;;;13.60;99.90;;;;;;5071317;28;20047;-83
2023/09/27 07:24:36;;;;;;;9.30;4.72;;;13.60;99.90;;;;;;5071620;28;20028;-82
2023/09/27 07:27:02;;;;;;;6.68;4.70;;;13.70;99.90;;;;;;5066974;28;20102;-82
2023/09/27 07:29:28;;;;;;;8.60;4.80;;;13.70;99.90;;;;;;5078542;28;21038;-82
2023/09/27 07:31:54;;;;;;;6.35;4.50;;;13.80;99.90;;;;;;5070787;28;20111;-83
2023/09/27 07:34:20;;;;;;;7.18;4.82;;;13.90;99.90;;;;;;5071112;28;20060;-83
2023/09/27 07:36:45;;;;;;;6.80;4.75;;;13.90;99.90;;;;;;5061985;28;20033;-84
2023/09/27 07:39:13;;;;;;;6.45;4.05;;;14.00;99.90;;;;;;5071152;28;20077;-83
2023/09/27 07:41:38;;;;;;;7.53;4.13;;;14.10;99.90;;;;;;5054696;28;20028;-82
2023/09/27 07:44:07;;;;;;;93.38;10.73;;;14.10;99.90;;;;;;5058392;28;20024;-86
2023/09/27 07:46:33;;;;;;;206.18;22.50;;;14.20;99.90;;;;;;5070062;28;20354;-83
2023/09/27 07:48:59;;;;;;;794.95;84.78;;;14.20;99.90;;;;;;5067817;28;20033;-87
2023/09/27 07:51:24;;;;;;;573.10;62.47;;;14.30;99.90;;;;;;5071139;28;20027;-84
2023/09/27 07:53:50;;;;;;;348.15;36.53;;;14.30;99.90;;;;;;5067578;28;20020;-90
2023/09/27 07:56:21;;;;;;;619.13;68.10;;;14.40;99.90;;;;;;5071203;28;20053;-86
2023/09/27 07:58:51;;;;;;;443.77;50.30;;;14.40;99.90;;;;;;5069303;28;20042;-90
2023/09/27 08:01:20;;;;;;;305.50;30.92;;;14.50;99.90;;;;;;5069432;28;20039;-85
2023/09/27 08:03:48;;;;;;;166.48;19.88;;;14.50;99.90;;;;;;5069817;28;20069;-86
2023/09/27 08:06:16;;;;;;;57.85;9.98;;;14.60;99.90;;;;;;5069718;28;20489;-84
2023/09/27 08:08:42;;;;;;;31.70;7.22;;;14.60;99.90;;;;;;5071134;28;20075;-86
2023/09/27 08:11:11;;;;;;;10.85;6.13;;;14.70;99.90;;;;;;5070502;28;20052;-81
2023/09/27 08:13:37;;;;;;;13.43;5.78;;;14.70;99.90;;;;;;5079667;28;20081;-83
2023/09/27 08:16:06;;;;;;;9.48;5.38;;;14.80;99.90;;;;;;5072618;28;20064;-80
2023/09/27 08:18:33;;;;;;;16.45;5.70;;;14.80;99.90;;;;;;5076690;28;20431;-84
2023/09/27 08:20:59;;;;;;;18.95;6.45;;;14.90;99.90;;;;;;5073335;28;20090;-84
2023/09/27 08:23:25;;;;;;;192.63;19.80;;;14.90;99.90;;;;;;5075205;28;20033;-84
2023/09/27 08:25:52;;;;;;;670.03;75.22;;;14.90;99.90;;;;;;5066863;28;20552;-83
2023/09/27 08:28:21;;;;;;;421.77;44.53;;;14.90;99.90;;;;;;5074064;28;20036;-86
2023/09/27 08:30:48;;;;;;;163.93;19.17;;;15.00;99.90;;;;;;5073774;28;20029;-84
2023/09/27 08:33:14;;;;;;;103.55;15.20;;;15.00;99.90;;;;;;5072244;28;20087;-83
2023/09/27 08:35:40;;;;;;;59.97;8.75;;;15.10;99.90;;;;;;5073451;28;20469;-83
2023/09/27 08:38:05;;;;;;;215.30;22.90;;;15.10;99.90;;;;;;5066167;28;20036;-82
2023/09/27 08:40:31;;;;;;;100.10;12.70;;;15.20;99.90;;;;;;5063887;28;20024;-81
2023/09/27 08:42:59;;;;;;;43.38;7.15;;;15.20;99.90;;;;;;5065319;28;20024;-79
2023/09/27 08:45:26;;;;;;;14.57;4.13;;;15.20;99.90;;;;;;5073566;28;20033;-83
2023/09/27 08:47:54;;;;;;;105.45;11.93;;;15.30;99.90;;;;;;5073721;28;20060;-84
2023/09/27 08:50:20;;;;;;;142.32;16.23;;;15.30;99.90;;;;;;5072680;28;20028;-83
2023/09/27 08:52:47;;;;;;;46.10;6.93;;;15.40;99.90;;;;;;5060427;28;20071;-84
2023/09/27 08:55:13;;;;;;;15.18;4.75;;;15.40;99.90;;;;;;5073065;28;20044;-83
2023/09/27 08:57:53;;;;;;;15.98;4.20;;;15.50;99.90;;;;;;5072498;28;20029;-82
2023/09/27 09:00:26;;;;;;;11.23;3.65;;;15.50;99.90;;;;;;5074840;28;20515;-80
2023/09/27 09:02:59;;;;;;;15.93;4.30;;;15.50;99.90;;;;;;5072240;28;20025;-83
2023/09/27 09:05:28;;;;;;;6.80;3.42;;;15.60;99.90;;;;;;5072382;28;20036;-82
2023/09/27 09:08:01;;;;;;;7.57;3.42;;;15.60;99.90;;;;;;5072806;28;20032;-83
2023/09/27 09:10:28;;;;;;;6.68;3.40;;;15.70;99.90;;;;;;5073323;28;20032;-83
2023/09/27 09:12:54;;;;;;;11.20;4.03;;;15.70;99.90;;;;;;5078412;28;20037;-82
2023/09/27 09:15:29;;;;;;;7.90;3.30;;;15.70;99.90;;;;;;5070990;28;20048;-83
2023/09/27 09:17:57;;;;;;;13.52;3.63;;;15.80;99.90;;;;;;5070447;28;20021;-78
2023/09/27 09:21:08;;;;;;;32.95;5.50;;;16.00;99.90;;;;;;5071439;28;20028;-83
2023/09/27 09:23:33;;;;;;;71.95;9.30;;;16.10;99.90;;;;;;5068271;28;20028;-83
2023/09/27 09:26:00;;;;;;;22.48;4.68;;;16.20;99.90;;;;;;5071549;28;20055;-83
2023/09/27 09:28:27;;;;;;;9.02;3.60;;;16.30;99.90;;;;;;5072473;28;20094;-83
2023/09/27 09:30:54;;;;;;;11.07;4.13;;;16.40;99.90;;;;;;5072584;28;20440;-83
2023/09/27 09:33:20;;;;;;;5.90;2.90;;;16.40;99.90;;;;;;5072966;28;20055;-83
2023/09/27 09:35:47;;;;;;;15.52;5.15;;;16.50;99.90;;;;;;5072970;28;20060;-83
2023/09/27 09:38:21;;;;;;;93.38;11.73;;;16.50;99.90;;;;;;5071559;28;20028;-83
2023/09/27 09:40:58;;;;;;;50.70;7.85;;;16.50;99.90;;;;;;5070822;28;20052;-83
2023/09/27 09:43:31;;;;;;;42.78;6.63;;;16.50;99.90;;;;;;5070876;28;20037;-83
2023/09/27 09:45:57;;;;;;;29.17;4.82;;;16.50;99.90;;;;;;5063868;28;20028;-83
2023/09/27 09:48:23;;;;;;;12.73;4.30;;;16.50;99.90;;;;;;5064781;28;20485;-83
2023/09/27 09:50:49;;;;;;;6.75;3.20;;;16.50;99.90;;;;;;5072702;28;20020;-83
2023/09/27 09:53:16;;;;;;;5.05;3.20;;;16.60;99.90;;;;;;5072862;28;20514;-83
2023/09/27 09:55:44;;;;;;;6.80;3.08;;;16.70;99.90;;;;;;5071488;28;20082;-83
2023/09/27 09:58:21;;;;;;;6.93;3.47;;;16.60;99.90;;;;;;5071489;28;20028;-83
2023/09/27 10:00:49;;;;;;;5.45;3.28;;;16.70;99.90;;;;;;5061809;28;20119;-83
2023/09/27 10:03:20;;;;;;;5.10;2.95;;;16.80;99.90;;;;;;5076912;28;20036;-82
2023/09/27 10:05:50;;;;;;;3.38;2.50;;;16.80;99.90;;;;;;5059377;28;20028;-86
2023/09/27 10:08:18;;;;;;;6.22;2.80;;;16.90;99.90;;;;;;5064093;28;20028;-81
2023/09/27 10:10:44;;;;;;;7.55;3.30;;;17.00;99.90;;;;;;5071837;28;20024;-86
2023/09/27 10:13:12;;;;;;;8.50;3.45;;;17.10;99.90;;;;;;5071819;28;20036;-88
2023/09/27 10:15:39;;;;;;;7.03;2.90;;;17.10;99.90;;;;;;5078355;28;20032;-87
2023/09/27 10:18:23;;;;;;;9.57;3.05;;;17.20;99.90;;;;;;5082694;28;20029;-88
2023/09/27 10:21:00;;;;;;;5.47;3.03;;;17.30;99.90;;;;;;5070975;28;20091;-85
2023/09/27 10:23:26;;;;;;;8.65;3.40;;;17.40;99.90;;;;;;5065186;28;20037;-86
2023/09/27 10:25:52;;;;;;;5.70;3.38;;;17.40;99.90;;;;;;5070974;28;20161;-88
2023/09/27 10:28:18;;;;;;;5.63;3.05;;;17.50;99.90;;;;;;5071395;28;20035;-87
2023/09/27 10:30:48;;;;;;;5.32;3.45;;;17.60;99.90;;;;;;5071677;28;20044;-88
2023/09/27 10:33:25;;;;;;;4.57;3.42;;;17.70;99.90;;;;;;5071803;28;20040;-87
2023/09/27 10:36:03;;;;;;;4.78;3.30;;;17.70;99.90;;;;;;5070175;28;20028;-88
2023/09/27 10:38:41;;;;;;;7.10;3.47;;;17.90;99.90;;;;;;5070221;28;20399;-86
2023/09/27 10:41:07;;;;;;;6.13;3.95;;;17.90;99.90;;;;;;5071177;28;20036;-85
2023/09/27 10:43:35;;;;;;;8.23;3.78;;;18.00;99.90;;;;;;5063529;28;20063;-84
2023/09/27 10:46:04;;;;;;;5.82;3.75;;;18.10;99.90;;;;;;5067197;28;20083;-85
2023/09/27 10:48:37;;;;;;;6.00;3.90;;;18.20;99.90;;;;;;5067732;28;21158;-87
2023/09/27 10:51:03;;;;;;;6.38;3.53;;;18.30;99.90;;;;;;5057532;28;20089;-84
2023/09/27 10:53:32;;;;;;;3.95;2.95;;;18.40;99.90;;;;;;5070535;28;20429;-85
2023/09/27 10:55:58;;;;;;;9.75;3.65;;;18.50;99.90;;;;;;5070601;28;20032;-86
2023/09/27 10:58:23;;;;;;;4.53;3.42;;;18.50;99.90;;;;;;5070173;28;20135;-87
2023/09/27 11:00:57;;;;;;;6.43;3.13;;;18.50;99.90;;;;;;5062188;28;20035;-83
2023/09/27 11:03:23;;;;;;;7.20;3.63;;;18.60;99.90;;;;;;5059640;28;20422;-83
2023/09/27 11:05:50;;;;;;;6.60;3.13;;;18.60;99.90;;;;;;5060256;28;20081;-83
2023/09/27 11:08:23;;;;;;;5.05;3.17;;;18.70;99.90;;;;;;5070625;28;20121;-84
2023/09/27 11:10:52;;;;;;;4.75;3.13;;;18.70;99.90;;;;;;5069016;28;20457;-83
2023/09/27 11:13:18;;;;;;;6.78;3.25;;;18.70;99.90;;;;;;5070108;28;20029;-83
2023/09/27 11:15:44;;;;;;;4.80;3.28;;;18.80;99.90;;;;;;5070903;28;20384;-83
2023/09/27 11:18:10;;;;;;;8.02;3.17;;;18.90;99.90;;;;;;5078962;28;20017;-83
2023/09/27 11:20:37;;;;;;;7.35;3.00;;;18.90;99.90;;;;;;5065068;28;20247;-83
2023/09/27 11:23:03;;;;;;;8.52;3.20;;;19.00;99.90;;;;;;5070016;28;20028;-82
2023/09/27 11:25:30;;;;;;;70.97;8.77;;;19.20;99.90;;;;;;5071534;28;20021;-82
2023/09/27 11:27:56;;;;;;;18.70;4.97;;;19.30;99.90;;;;;;5069623;28;20064;-83
2023/09/27 11:30:33;;;;;;;7.63;2.90;;;19.40;99.90;;;;;;5070292;28;20020;-83
2023/09/27 11:33:01;;;;;;;6.20;3.13;;;19.50;99.90;;;;;;5068368;28;20123;-82
2023/09/27 11:35:27;;;;;;;6.65;3.55;;;19.70;99.90;;;;;;5067695;28;20037;-83
2023/09/27 11:38:04;;;;;;;7.72;3.22;;;19.80;99.90;;;;;;5070874;28;20039;-83
2023/09/27 11:40:34;;;;;;;6.15;2.92;;;19.90;99.90;;;;;;5059502;28;20025;-83
2023/09/27 11:43:01;;;;;;;4.25;3.10;;;20.00;99.90;;;;;;5068844;28;20039;-83
2023/09/27 11:45:26;;;;;;;5.22;3.25;;;20.10;99.90;;;;;;5069893;28;20639;-83
2023/09/27 11:47:52;;;;;;;4.57;3.00;;;20.20;99.90;;;;;;5068816;28;20028;-84
2023/09/27 11:50:19;;;;;;;4.50;2.88;;;20.10;99.90;;;;;;5085985;28;20123;-82
2023/09/27 11:52:49;;;;;;;28.95;4.68;;;20.20;99.90;;;;;;5073956;28;20032;-83
2023/09/27 11:55:15;;;;;;;14.25;3.60;;;20.20;99.90;;;;;;5073421;28;20040;-83
2023/09/27 11:57:41;;;;;;;11.38;3.15;;;20.30;99.90;;;;;;5074024;28;20484;-84
2023/09/27 12:00:09;;;;;;;10.65;3.15;;;20.30;99.90;;;;;;5061157;28;20029;-83
2023/09/27 12:02:37;;;;;;;7.47;2.88;;;20.50;99.90;;;;;;5073663;28;20393;-84
2023/09/27 12:05:05;;;;;;;4.30;2.58;;;20.70;99.90;;;;;;5074153;28;20525;-84
2023/09/27 12:07:32;;;;;;;4.40;2.88;;;20.80;99.90;;;;;;5073714;28;20032;-84
2023/09/27 12:09:57;;;;;;;7.25;3.25;;;21.00;99.90;;;;;;5073062;28;20143;-83
2023/09/27 12:12:23;;;;;;;3.58;2.60;;;21.10;99.90;;;;;;5073237;28;20052;-84
2023/09/27 12:14:50;;;;;;;4.75;2.55;;;21.20;99.90;;;;;;5072833;28;20546;-85
2023/09/27 12:17:16;;;;;;;4.80;2.70;;;21.40;99.90;;;;;;5073130;28;20082;-83
2023/09/27 12:19:43;;;;;;;4.65;2.40;;;21.50;99.90;;;;;;5072008;28;20094;-83
2023/09/27 12:22:11;;;;;;;5.97;2.67;;;21.80;99.90;;;;;;5072928;28;20016;-83
2023/09/27 12:24:36;;;;;;;5.03;2.38;;;22.00;99.90;;;;;;5072429;28;20453;-83
2023/09/27 12:27:02;;;;;;;6.70;2.53;;;22.20;99.90;;;;;;5060631;28;20032;-83
2023/09/27 12:29:27;;;;;;;4.63;2.60;;;22.40;99.90;;;;;;5074376;28;20393;-84
2023/09/27 12:31:53;;;;;;;3.35;2.17;;;22.50;99.90;;;;;;5073916;28;20032;-83
2023/09/27 12:34:19;;;;;;;2.90;2.17;;;22.70;99.90;;;;;;5072438;28;20080;-83
2023/09/27 12:36:45;;;;;;;4.35;2.33;;;22.90;99.90;;;;;;5087021;28;20039;-83
2023/09/27 12:39:10;;;;;;;5.07;2.35;;;23.10;99.90;;;;;;5073687;28;20025;-83
2023/09/27 12:41:36;;;;;;;2.92;2.15;;;23.30;99.90;;;;;;5072302;28;20050;-83